Humidity-temperature Sensor

Selected Measurement Type: Relative Humidity

 
Relative Humidity [%]     6 entries per hour
Showing data from 5/31/2018 (12:30:00 Z) to 5/28/2018 (00:01:00 Z)
Previous Next [ Day | 3-Days | 7-Days ]
First Last
Prev [ Day | 3-Days | 7-Days ] Next
First Last

Start Time:     :
End Time:     :     
Time (in GMT) :00 :50 :40 :30 :20 :10
Previous Next [ Day | 3-Days | 7-Days ]
First Last
Prev [ Day | 3-Days | 7-Days ] Next
First Last


123 => good data
MM => data is determined as missing
-- => data not received/configured
Back to Top Back to Top
5/31/2018 13:00 to 12:10 -- -- -- 89.80 84.56 84.43
5/31/2018 12:00 to 11:10 83.09 84.08 84.25 84.45 83.69 85.12
5/31/2018 11:00 to 10:10 84.60 85.90 85.86 85.20 85.26 84.37
5/31/2018 10:00 to 9:10 84.87 85.70 85.28 85.92 85.05 84.91
5/31/2018 09:00 to 8:10 85.08 84.39 85.26 84.95 85.24 85.01
5/31/2018 08:00 to 7:10 84.50 84.62 84.89 83.46 84.25 84.87
5/31/2018 07:00 to 6:10 84.79 84.47 83.69 83.36 82.40 81.99
5/31/2018 06:00 to 5:10 80.97 83.05 82.44 82.34 81.14 80.99
5/31/2018 05:00 to 4:10 81.14 81.02 78.61 80.25 77.54 78.01
5/31/2018 04:00 to 3:10 80.54 82.57 82.67 82.44 82.90 84.27
5/31/2018 03:00 to 2:10 85.05 85.20 84.60 84.25 84.58 84.45
5/31/2018 02:00 to 1:10 84.10 84.04 83.96 81.99 82.07 81.89
5/31/2018 01:00 to 0:10 81.93 83.34 83.56 84.33 85.12 86.13
5/31/2018 00:00 to 23:10 83.38 79.75 80.41 79.94 79.52 81.97
5/30/2018 23:00 to 22:10 83.27 81.64 87.73 89.61 81.78 81.37
5/30/2018 22:00 to 21:10 82.30 81.93 80.75 80.93 80.83 79.46
5/30/2018 21:00 to 20:10 81.76 80.44 78.01 80.73 78.05 75.77
5/30/2018 20:00 to 19:10 76.44 80.89 82.20 80.08 79.96 78.96
5/30/2018 19:00 to 18:10 78.61 82.71 84.91 83.71 82.28 82.63
5/30/2018 18:00 to 17:10 82.53 81.45 81.55 83.13 84.56 86.28
5/30/2018 17:00 to 16:10 83.75 82.55 83.19 82.07 82.38 82.94
5/30/2018 16:00 to 15:10 81.12 83.42 85.41 84.25 83.13 83.27
5/30/2018 15:00 to 14:10 82.40 84.33 85.84 85.78 85.97 86.24
5/30/2018 14:00 to 13:10 85.78 87.67 87.25 86.61 86.94 86.26
5/30/2018 13:00 to 12:10 87.77 90.03 89.94 90.21 88.72 86.24
5/30/2018 12:00 to 11:10 88.10 85.88 85.84 85.59 85.41 85.20
5/30/2018 11:00 to 10:10 84.62 85.18 85.32 86.55 85.53 84.33
5/30/2018 10:00 to 9:10 83.42 83.52 83.87 84.52 85.41 86.28
5/30/2018 09:00 to 8:10 84.66 83.29 81.91 81.95 83.83 86.55
5/30/2018 08:00 to 7:10 85.88 86.38 86.55 86.63 86.96 86.88
5/30/2018 07:00 to 6:10 86.48 86.50 86.73 87.00 86.86 86.71
5/30/2018 06:00 to 5:10 86.44 86.36 86.40 86.80 87.06 87.23
5/30/2018 05:00 to 4:10 87.81 88.95 89.26 89.86 89.72 90.19
5/30/2018 04:00 to 3:10 90.40 89.94 88.56 88.70 88.14 86.09
5/30/2018 03:00 to 2:10 86.30 85.39 84.89 85.01 83.96 83.87
5/30/2018 02:00 to 1:10 83.29 83.65 83.29 84.00 84.45 84.10
5/30/2018 01:00 to 0:10 82.67 81.64 81.49 82.30 80.87 79.21
5/30/2018 00:00 to 23:10 78.61 78.22 78.84 78.45 77.99 79.67
5/29/2018 23:00 to 22:10 80.04 80.64 80.68 79.96 80.10 79.52
5/29/2018 22:00 to 21:10 79.79 79.79 79.05 79.48 77.78 78.55
5/29/2018 21:00 to 20:10 78.41 78.32 78.32 77.83 76.75 75.42
5/29/2018 20:00 to 19:10 76.09 75.92 76.00 76.09 75.09 75.07
5/29/2018 19:00 to 18:10 74.30 75.48 74.41 74.66 75.24 74.24
5/29/2018 18:00 to 17:10 75.57 81.24 84.27 85.16 86.38 86.67
5/29/2018 17:00 to 16:10 86.03 84.91 87.50 88.08 87.19 87.91
5/29/2018 16:00 to 15:10 89.20 90.17 89.78 89.59 90.36 91.12
5/29/2018 15:00 to 14:10 89.70 88.02 89.14 90.30 91.70 92.26
5/29/2018 14:00 to 13:10 91.46 90.13 90.09 89.03 86.28 85.95
5/29/2018 13:00 to 12:10 85.34 86.17 87.83 88.12 88.00 87.96
5/29/2018 12:00 to 11:10 88.56 89.45 88.58 89.07 88.08 86.53
5/29/2018 11:00 to 10:10 88.39 87.96 87.64 86.73 86.88 86.88
5/29/2018 10:00 to 9:10 86.92 84.58 86.36 86.75 87.17 86.96
5/29/2018 09:00 to 8:10 87.13 87.54 86.92 86.53 86.69 87.13
5/29/2018 08:00 to 7:10 85.74 85.82 85.22 85.53 86.11 86.69
5/29/2018 07:00 to 6:10 87.89 88.70 88.78 88.89 88.31 88.47
5/29/2018 06:00 to 5:10 89.03 88.68 86.82 86.75 88.41 87.58
5/29/2018 05:00 to 4:10 84.64 85.32 84.39 83.42 82.24 81.18
5/29/2018 04:00 to 3:10 80.87 80.89 82.28 83.65 83.54 82.61
5/29/2018 03:00 to 2:10 83.42 83.29 82.98 82.76 82.01 83.79
5/29/2018 02:00 to 1:10 83.02 83.71 83.96 84.00 83.46 83.42
5/29/2018 01:00 to 0:10 82.82 83.42 82.22 81.70 81.99 82.40
5/29/2018 00:00 to 23:10 82.61 82.69 84.23 83.75 85.78 83.73
5/28/2018 23:00 to 22:10 83.27 83.60 83.11 82.88 82.53 82.49
5/28/2018 22:00 to 21:10 82.57 81.84 82.57 83.52 84.16 83.94
5/28/2018 21:00 to 20:10 84.72 83.56 83.92 83.21 82.92 85.20
5/28/2018 20:00 to 19:10 83.19 83.89 83.63 84.79 85.14 83.50
5/28/2018 19:00 to 18:10 83.85 84.89 82.67 82.76 83.52 83.73
5/28/2018 18:00 to 17:10 82.53 81.33 84.35 84.62 84.91 85.90
5/28/2018 17:00 to 16:10 85.34 84.89 85.10 86.36 87.11 87.09
5/28/2018 16:00 to 15:10 87.29 86.86 86.63 86.55 87.21 88.16
5/28/2018 15:00 to 14:10 88.00 88.25 89.47 89.90 89.99 89.90
5/28/2018 14:00 to 13:10 89.51 88.93 89.99 91.44 91.62 92.60
5/28/2018 13:00 to 12:10 92.22 90.19 89.41 88.87 89.86 89.01
5/28/2018 12:00 to 11:10 88.62 89.01 87.79 85.63 87.81 85.24
5/28/2018 11:00 to 10:10 84.85 83.52 85.24 84.99 84.95 86.05
5/28/2018 10:00 to 9:10 86.34 86.32 86.24 85.47 87.11 88.29
5/28/2018 09:00 to 8:10 88.14 89.59 89.53 89.61 89.74 89.84
5/28/2018 08:00 to 7:10 88.89 89.47 88.87 89.07 88.14 87.06
5/28/2018 07:00 to 6:10 86.19 85.68 85.28 85.41 87.29 86.75
5/28/2018 06:00 to 5:10 85.80 85.08 84.39 88.27 88.18 88.91
5/28/2018 05:00 to 4:10 88.33 87.42 86.46 88.49 88.00 85.72
5/28/2018 04:00 to 3:10 85.86 86.61 86.46 85.74 84.91 85.37
5/28/2018 03:00 to 2:10 84.89 84.08 84.91 83.46 82.49 83.71
5/28/2018 02:00 to 1:10 85.51 88.12 88.00 89.47 83.89 82.88
5/28/2018 01:00 to 0:10 82.22 81.37 81.26 80.87 80.58 80.87